createdAt,value
2023-04-20T00:00:51.628Z,23.63
2023-04-20T00:01:51.705Z,23.64
2023-04-20T00:02:51.837Z,23.65
2023-04-20T00:03:52.012Z,23.65
2023-04-20T00:04:51.768Z,23.66
2023-04-20T00:05:51.763Z,23.66
2023-04-20T00:06:52.178Z,23.66
2023-04-20T00:07:52.183Z,23.66
2023-04-20T00:08:52.213Z,23.66
2023-04-20T00:09:52.197Z,23.66
2023-04-20T00:10:52.220Z,23.67
2023-04-20T00:11:52.206Z,23.65
2023-04-20T00:12:52.208Z,23.66
2023-04-20T00:13:52.204Z,23.66
2023-04-20T00:14:52.245Z,23.66
2023-04-20T00:15:52.193Z,23.67
2023-04-20T00:16:52.208Z,23.66
2023-04-20T00:17:52.278Z,23.66
2023-04-20T00:18:52.261Z,23.66
2023-04-20T00:19:52.242Z,23.66
2023-04-20T00:20:52.317Z,23.67
2023-04-20T00:21:52.325Z,23.65
2023-04-20T00:22:52.352Z,23.66
2023-04-20T00:23:52.416Z,23.67
2023-04-20T00:24:52.436Z,23.66
2023-04-20T00:25:52.501Z,23.66
2023-04-20T00:26:52.555Z,23.66
2023-04-20T00:27:52.583Z,23.66
2023-04-20T00:28:52.719Z,23.65
2023-04-20T00:29:52.673Z,23.66
2023-04-20T00:30:52.689Z,23.66
2023-04-20T00:31:53.087Z,23.65
2023-04-20T00:32:53.173Z,23.66
2023-04-20T00:33:53.131Z,23.66
2023-04-20T00:34:53.134Z,23.65
2023-04-20T00:35:53.117Z,23.66
2023-04-20T00:36:53.128Z,23.66
2023-04-20T00:37:53.120Z,23.65
2023-04-20T00:38:53.131Z,23.66
2023-04-20T00:39:53.133Z,23.66
2023-04-20T00:40:53.187Z,23.67
2023-04-20T00:41:53.132Z,23.66
2023-04-20T00:42:53.175Z,23.65
2023-04-20T00:43:53.199Z,23.66
2023-04-20T00:44:53.229Z,23.66
2023-04-20T00:45:53.261Z,23.65
2023-04-20T00:46:53.285Z,23.66
2023-04-20T00:47:53.414Z,23.66
2023-04-20T00:48:53.380Z,23.66
2023-04-20T00:49:53.400Z,23.66
2023-04-20T00:50:53.450Z,23.65
2023-04-20T00:51:53.472Z,23.65
2023-04-20T00:52:53.510Z,23.65
2023-04-20T00:53:53.566Z,23.65
2023-04-20T00:54:53.589Z,23.65
2023-04-20T00:55:53.652Z,23.64
2023-04-20T00:56:53.672Z,23.65
2023-04-20T00:57:53.720Z,23.65
2023-04-20T00:58:53.906Z,23.66
2023-04-20T00:59:53.829Z,23.65
2023-04-20T01:00:53.816Z,23.65
2023-04-20T01:01:53.931Z,23.65
2023-04-20T01:02:54.055Z,23.66
2023-04-20T01:03:54.227Z,23.65
2023-04-20T01:04:53.990Z,23.66
2023-04-20T01:05:54.022Z,23.65
2023-04-20T01:06:54.070Z,23.65
2023-04-20T01:07:54.095Z,23.65
2023-04-20T01:08:54.147Z,23.65
2023-04-20T01:09:54.180Z,23.65
2023-04-20T01:10:54.224Z,23.65
2023-04-20T01:11:54.282Z,23.65
2023-04-20T01:12:54.321Z,23.65
2023-04-20T01:13:54.358Z,23.65
2023-04-20T01:14:54.453Z,23.66
2023-04-20T01:15:54.468Z,23.65
2023-04-20T01:16:54.470Z,23.66
2023-04-20T01:17:54.559Z,23.65
2023-04-20T01:18:54.571Z,23.65
2023-04-20T01:19:54.596Z,23.65
2023-04-20T01:20:54.640Z,23.65
2023-04-20T01:21:54.676Z,23.65
2023-04-20T01:22:54.712Z,23.65
2023-04-20T01:23:54.755Z,23.64
2023-04-20T01:24:54.803Z,23.65
2023-04-20T01:25:54.869Z,23.64
2023-04-20T01:26:54.881Z,23.64
2023-04-20T01:27:54.921Z,23.64
2023-04-20T01:28:54.966Z,23.65
2023-04-20T01:29:54.995Z,23.65
2023-04-20T01:30:55.060Z,23.64
2023-04-20T01:31:55.177Z,23.64
2023-04-20T01:32:55.248Z,23.65
2023-04-20T01:33:55.169Z,23.64
2023-04-20T01:34:55.206Z,23.65
2023-04-20T01:35:55.251Z,23.64
2023-04-20T01:36:55.281Z,23.64
2023-04-20T01:37:55.334Z,23.64
2023-04-20T01:38:55.363Z,23.65
2023-04-20T01:39:55.484Z,23.64
2023-04-20T01:40:55.458Z,23.64
2023-04-20T01:41:55.500Z,23.64
2023-04-20T01:42:55.542Z,23.64
2023-04-20T01:43:55.585Z,23.64
2023-04-20T01:44:55.617Z,23.64
2023-04-20T01:45:56.121Z,23.63
2023-04-20T01:46:55.744Z,23.64
2023-04-20T01:47:55.763Z,23.64
2023-04-20T01:48:55.783Z,23.64
2023-04-20T01:49:55.824Z,23.64
2023-04-20T01:50:55.888Z,23.64
2023-04-20T01:51:55.918Z,23.65
2023-04-20T01:52:55.940Z,23.65
2023-04-20T01:53:55.988Z,23.65
2023-04-20T01:54:56.022Z,23.65
2023-04-20T01:55:56.082Z,23.66
2023-04-20T01:56:56.095Z,23.66
2023-04-20T01:57:56.129Z,23.66
2023-04-20T01:58:56.171Z,23.65
2023-04-20T01:59:56.203Z,23.64
2023-04-20T02:00:56.266Z,23.65
2023-04-20T02:01:57.253Z,23.65
2023-04-20T02:02:56.479Z,23.64
2023-04-20T02:03:56.431Z,23.64
2023-04-20T02:04:56.406Z,23.65
2023-04-20T02:05:56.470Z,23.65
2023-04-20T02:06:56.465Z,23.65
2023-04-20T02:07:56.502Z,23.65
2023-04-20T02:08:56.557Z,23.65
2023-04-20T02:09:56.581Z,23.65
2023-04-20T02:10:56.619Z,23.65
2023-04-20T02:11:56.655Z,23.64
2023-04-20T02:12:56.696Z,23.64
2023-04-20T02:13:56.739Z,23.64
2023-04-20T02:14:56.768Z,23.64
2023-04-20T02:15:56.822Z,23.64
2023-04-20T02:16:56.889Z,23.65
2023-04-20T02:17:56.957Z,23.64
2023-04-20T02:18:56.967Z,23.64
2023-04-20T02:19:56.981Z,23.64
2023-04-20T02:20:57.036Z,23.63
2023-04-20T02:21:57.065Z,23.64
2023-04-20T02:22:57.101Z,23.64
2023-04-20T02:23:57.152Z,23.64
2023-04-20T02:24:57.189Z,23.65
2023-04-20T02:25:58.129Z,23.64
2023-04-20T02:26:57.278Z,23.65
2023-04-20T02:27:57.313Z,23.64
2023-04-20T02:28:57.365Z,23.64
2023-04-20T02:29:57.393Z,23.65
2023-04-20T02:30:57.511Z,23.65
2023-04-20T02:31:57.502Z,23.64
2023-04-20T02:32:57.634Z,23.64
2023-04-20T02:33:57.578Z,23.64
2023-04-20T02:34:58.053Z,23.65
2023-04-20T02:35:58.025Z,23.64
2023-04-20T02:36:58.030Z,23.63
2023-04-20T02:37:58.021Z,23.64
2023-04-20T02:38:58.033Z,23.64
2023-04-20T02:39:58.024Z,23.63
2023-04-20T02:40:58.024Z,23.63
2023-04-20T02:41:58.016Z,23.64
2023-04-20T02:42:58.018Z,23.64
2023-04-20T02:43:58.032Z,23.64
2023-04-20T02:44:58.609Z,23.64
2023-04-20T02:45:58.219Z,23.64
2023-04-20T02:46:58.163Z,23.64
2023-04-20T02:47:58.262Z,23.64
2023-04-20T02:48:58.244Z,23.63
2023-04-20T02:49:58.293Z,23.63
2023-04-20T02:50:58.378Z,23.63
2023-04-20T02:51:58.389Z,23.63
2023-04-20T02:52:58.422Z,23.63
2023-04-20T02:53:58.473Z,23.63
2023-04-20T02:54:58.522Z,23.62
2023-04-20T02:55:58.564Z,23.63
2023-04-20T02:56:58.606Z,23.62
2023-04-20T02:57:58.646Z,23.63
2023-04-20T02:58:59.648Z,23.63
2023-04-20T02:59:59.652Z,23.62
2023-04-20T03:00:58.688Z,23.62
2023-04-20T03:01:58.768Z,23.62
2023-04-20T03:02:58.777Z,23.63
2023-04-20T03:03:58.762Z,23.63
2023-04-20T03:04:58.658Z,23.63
2023-04-20T03:05:59.190Z,23.63
2023-04-20T03:06:58.689Z,23.62
2023-04-20T03:07:58.637Z,23.62
2023-04-20T03:08:58.634Z,23.62
2023-04-20T03:09:59.202Z,23.63
2023-04-20T03:10:58.613Z,23.63
2023-04-20T03:11:59.185Z,23.62
2023-04-20T03:12:59.659Z,23.62
2023-04-20T03:13:58.741Z,23.61
2023-04-20T03:15:01.662Z,23.61
2023-04-20T03:15:58.798Z,23.62
2023-04-20T03:16:59.659Z,23.61
2023-04-20T03:17:58.811Z,23.61
2023-04-20T03:18:59.683Z,23.62
2023-04-20T03:19:58.757Z,23.61
2023-04-20T03:20:58.745Z,23.61
2023-04-20T03:21:58.742Z,23.61
2023-04-20T03:22:58.777Z,23.61
2023-04-20T03:23:59.195Z,23.62
2023-04-20T03:24:58.734Z,23.61
2023-04-20T03:25:58.715Z,23.62
2023-04-20T03:26:58.695Z,23.61
2023-04-20T03:27:58.710Z,23.62
2023-04-20T03:28:58.691Z,23.62
2023-04-20T03:29:58.712Z,23.62
2023-04-20T03:30:58.761Z,23.61
2023-04-20T03:31:59.235Z,23.62
2023-04-20T03:32:59.686Z,23.62
2023-04-20T03:33:59.192Z,23.62
2023-04-20T03:34:59.195Z,23.61
2023-04-20T03:35:59.188Z,23.61
2023-04-20T03:36:59.184Z,23.61
2023-04-20T03:37:59.668Z,23.61
2023-04-20T03:38:59.206Z,23.62
2023-04-20T03:39:59.183Z,23.62
2023-04-20T03:41:02.161Z,23.62
2023-04-20T03:41:59.194Z,23.63
2023-04-20T03:43:02.167Z,23.62
2023-04-20T03:43:59.188Z,23.61
2023-04-20T03:44:59.270Z,23.61
2023-04-20T03:45:59.707Z,23.62
2023-04-20T03:46:59.180Z,23.62
2023-04-20T03:47:59.200Z,23.62
2023-04-20T03:48:59.181Z,23.62
2023-04-20T03:49:59.189Z,23.61
2023-04-20T03:50:59.194Z,23.62
2023-04-20T03:51:59.181Z,23.61
2023-04-20T03:52:59.177Z,23.62
2023-04-20T03:53:59.180Z,23.62
2023-04-20T03:54:59.283Z,23.62
2023-04-20T03:55:59.179Z,23.62
2023-04-20T03:56:59.672Z,23.62
2023-04-20T03:57:59.182Z,23.62
2023-04-20T03:58:59.191Z,23.62
2023-04-20T03:59:59.192Z,23.62
2023-04-20T04:00:59.189Z,23.62
2023-04-20T04:01:59.750Z,23.63
2023-04-20T04:02:59.368Z,23.62
2023-04-20T04:03:59.669Z,23.62
2023-04-20T04:04:59.229Z,23.62
2023-04-20T04:05:59.191Z,23.62
2023-04-20T04:06:59.181Z,23.62
2023-04-20T04:07:59.186Z,23.62
2023-04-20T04:08:59.181Z,23.62
2023-04-20T04:09:59.244Z,23.62
2023-04-20T04:10:59.314Z,23.63
2023-04-20T04:11:59.324Z,23.62
2023-04-20T04:12:59.391Z,23.62
2023-04-20T04:13:59.446Z,23.62
2023-04-20T04:14:59.467Z,23.62
2023-04-20T04:15:59.537Z,23.62
2023-04-20T04:17:00.237Z,23.62
2023-04-20T04:17:59.632Z,23.62
2023-04-20T04:18:59.730Z,23.62
2023-04-20T04:19:59.712Z,23.61
2023-04-20T04:20:59.749Z,23.62
2023-04-20T04:21:59.797Z,23.61
2023-04-20T04:22:59.860Z,23.62
2023-04-20T04:23:59.897Z,23.62
2023-04-20T04:24:59.956Z,23.62
2023-04-20T04:25:59.996Z,23.61
2023-04-20T04:27:00.726Z,23.61
2023-04-20T04:28:00.154Z,23.61
2023-04-20T04:29:00.191Z,23.61
2023-04-20T04:30:00.214Z,23.61
2023-04-20T04:31:00.293Z,23.61
2023-04-20T04:32:00.315Z,23.60
2023-04-20T04:33:00.410Z,23.61
2023-04-20T04:34:00.417Z,23.61
2023-04-20T04:35:00.475Z,23.61
2023-04-20T04:36:00.548Z,23.61
2023-04-20T04:37:00.550Z,23.60
2023-04-20T04:38:00.610Z,23.61
2023-04-20T04:39:00.651Z,23.60
2023-04-20T04:40:00.711Z,23.61
2023-04-20T04:41:00.738Z,23.61
2023-04-20T04:42:01.166Z,23.61
2023-04-20T04:43:01.051Z,23.61
2023-04-20T04:44:01.060Z,23.61
2023-04-20T04:45:01.104Z,23.62
2023-04-20T04:46:01.170Z,23.61
2023-04-20T04:47:01.184Z,23.61
2023-04-20T04:48:01.255Z,23.60
2023-04-20T04:49:01.419Z,23.62
2023-04-20T04:50:01.311Z,23.62
2023-04-20T04:51:01.349Z,23.62
2023-04-20T04:52:01.391Z,23.61
2023-04-20T04:53:01.452Z,23.61
2023-04-20T04:54:01.490Z,23.61
2023-04-20T04:55:01.543Z,23.61
2023-04-20T04:56:01.587Z,23.61
2023-04-20T04:57:01.618Z,23.62
2023-04-20T04:58:01.680Z,23.61
2023-04-20T04:59:01.739Z,23.61
2023-04-20T05:00:01.757Z,23.62
2023-04-20T05:01:01.789Z,23.62
2023-04-20T05:02:01.972Z,23.62
2023-04-20T05:03:02.052Z,23.62
2023-04-20T05:04:02.030Z,23.62
2023-04-20T05:05:01.956Z,23.61
2023-04-20T05:06:02.049Z,23.62
2023-04-20T05:07:02.054Z,23.62
2023-04-20T05:08:02.085Z,23.62
2023-04-20T05:09:02.123Z,23.63
2023-04-20T05:10:02.180Z,23.63
2023-04-20T05:11:02.227Z,23.63
2023-04-20T05:12:03.245Z,23.63
2023-04-20T05:13:02.274Z,23.62
2023-04-20T05:14:03.103Z,23.63
2023-04-20T05:15:02.445Z,23.63
2023-04-20T05:16:02.388Z,23.62
2023-04-20T05:17:02.434Z,23.62
2023-04-20T05:18:02.494Z,23.62
2023-04-20T05:19:02.543Z,23.62
2023-04-20T05:20:02.576Z,23.62
2023-04-20T05:21:02.601Z,23.62
2023-04-20T05:22:03.218Z,23.63
2023-04-20T05:23:02.683Z,23.63
2023-04-20T05:24:03.224Z,23.64
2023-04-20T05:25:03.106Z,23.64
2023-04-20T05:26:03.133Z,23.64
2023-04-20T05:27:03.110Z,23.64
2023-04-20T05:28:03.116Z,23.64
2023-04-20T05:29:03.121Z,23.64
2023-04-20T05:30:18.845Z,23.64
2023-04-20T05:31:03.132Z,23.63
2023-04-20T05:32:03.148Z,23.64
2023-04-20T05:33:03.163Z,23.64
2023-04-20T05:34:03.221Z,23.64
2023-04-20T05:35:03.129Z,23.64
2023-04-20T05:36:03.076Z,23.65
2023-04-20T05:37:03.164Z,23.65
2023-04-20T05:38:03.130Z,23.65
2023-04-20T05:39:03.254Z,23.65
2023-04-20T05:40:02.901Z,23.65
2023-04-20T05:41:04.737Z,23.66
2023-04-20T05:42:02.897Z,23.65
2023-04-20T05:43:03.433Z,23.65
2023-04-20T05:44:02.875Z,23.65
2023-04-20T05:45:02.890Z,23.65
2023-04-20T05:46:03.330Z,23.65
2023-04-20T05:47:03.761Z,23.65
2023-04-20T05:48:02.886Z,23.65
2023-04-20T05:49:03.233Z,23.65
2023-04-20T05:50:02.832Z,23.65
2023-04-20T05:51:02.871Z,23.65
2023-04-20T05:52:02.898Z,23.66
2023-04-20T05:53:02.839Z,23.66
2023-04-20T05:54:03.267Z,23.65
2023-04-20T05:55:02.832Z,23.65
2023-04-20T05:56:02.833Z,23.65
2023-04-20T05:57:02.853Z,23.66
2023-04-20T05:58:02.807Z,23.66
2023-04-20T05:59:03.273Z,23.66
2023-04-20T06:01:02.782Z,23.66
2023-04-20T06:02:02.875Z,23.66
2023-04-20T06:03:35.231Z,23.65
2023-04-20T06:04:04.545Z,23.65
2023-04-20T06:05:02.872Z,23.66
2023-04-20T06:06:02.767Z,23.66
2023-04-20T06:07:02.763Z,23.66
2023-04-20T06:08:02.779Z,23.67
2023-04-20T06:09:02.770Z,23.67
2023-04-20T06:10:03.727Z,23.66
2023-04-20T06:11:02.723Z,23.67
2023-04-20T06:12:03.273Z,23.67
2023-04-20T06:13:02.884Z,23.67
2023-04-20T06:14:03.259Z,23.68
2023-04-20T06:15:02.704Z,23.68
2023-04-20T06:16:02.810Z,23.69
2023-04-20T06:17:02.713Z,23.68
2023-04-20T06:18:02.698Z,23.69
2023-04-20T06:19:02.947Z,23.70
2023-04-20T06:20:02.671Z,23.70
2023-04-20T06:21:02.720Z,23.70
2023-04-20T06:22:02.758Z,23.70
2023-04-20T06:23:02.787Z,23.69
2023-04-20T06:24:03.307Z,23.70
2023-04-20T06:25:02.894Z,23.69
2023-04-20T06:26:02.866Z,23.70
2023-04-20T06:27:02.928Z,23.69
2023-04-20T06:28:02.929Z,23.70
2023-04-20T06:29:03.289Z,23.70
2023-04-20T06:30:02.989Z,23.69
2023-04-20T06:31:03.856Z,23.69
2023-04-20T06:32:03.775Z,23.70
2023-04-20T06:33:06.412Z,23.69
2023-04-20T06:34:03.124Z,23.69
2023-04-20T06:35:03.156Z,23.70
2023-04-20T06:36:03.101Z,23.70
2023-04-20T06:37:03.282Z,23.69
2023-04-20T06:38:03.097Z,23.70
2023-04-20T06:39:04.806Z,23.70
2023-04-20T06:40:03.083Z,23.70
2023-04-20T06:41:03.099Z,23.70
2023-04-20T06:42:03.292Z,23.71
2023-04-20T06:43:03.331Z,23.71
2023-04-20T06:44:03.280Z,23.71
2023-04-20T06:45:03.288Z,23.72
2023-04-20T06:46:03.122Z,23.72
2023-04-20T06:47:03.214Z,23.72
2023-04-20T06:48:03.130Z,23.73
2023-04-20T06:49:03.374Z,23.72
2023-04-20T06:50:03.034Z,23.72
2023-04-20T06:51:03.034Z,23.72
2023-04-20T06:52:03.791Z,23.72
2023-04-20T06:53:19.385Z,23.72
2023-04-20T06:54:03.302Z,23.72
2023-04-20T06:55:02.992Z,23.73
2023-04-20T06:56:03.083Z,23.72
2023-04-20T06:57:02.983Z,23.72
2023-04-20T06:58:02.950Z,23.73
2023-04-20T06:59:02.920Z,23.74
2023-04-20T07:00:02.979Z,23.73
2023-04-20T07:01:02.939Z,23.74
2023-04-20T07:02:03.336Z,23.74
2023-04-20T07:03:03.950Z,23.74
2023-04-20T07:04:03.150Z,23.74
2023-04-20T07:05:02.907Z,23.73
2023-04-20T07:06:04.885Z,23.74
2023-04-20T07:07:03.550Z,23.74
2023-04-20T07:08:06.063Z,23.75
2023-04-20T07:09:06.963Z,23.74
2023-04-20T07:10:02.856Z,23.73
2023-04-20T07:11:03.279Z,23.75
2023-04-20T07:12:02.831Z,23.75
2023-04-20T07:13:02.858Z,23.75
2023-04-20T07:14:03.334Z,23.75
2023-04-20T07:15:02.836Z,23.75
2023-04-20T07:16:02.898Z,23.75
2023-04-20T07:17:03.289Z,23.74
2023-04-20T07:18:03.013Z,23.75
2023-04-20T07:19:04.020Z,23.75
2023-04-20T07:20:04.800Z,23.75
2023-04-20T07:21:02.810Z,23.75
2023-04-20T07:22:02.805Z,23.75
2023-04-20T07:23:03.618Z,23.75
2023-04-20T07:24:02.808Z,23.76
2023-04-20T07:25:02.799Z,23.76
2023-04-20T07:26:02.775Z,23.77
2023-04-20T07:27:02.784Z,23.77
2023-04-20T07:28:02.769Z,23.77
2023-04-20T07:29:02.763Z,23.78
2023-04-20T07:30:02.781Z,23.79
2023-04-20T07:31:02.778Z,23.78
2023-04-20T07:32:02.840Z,23.79
2023-04-20T07:33:02.802Z,23.79
2023-04-20T07:34:02.797Z,23.80
2023-04-20T07:35:02.723Z,23.81
2023-04-20T07:36:02.674Z,23.81
2023-04-20T07:37:03.290Z,23.80
2023-04-20T07:38:03.278Z,23.82
2023-04-20T07:39:03.356Z,23.82
2023-04-20T07:40:02.709Z,23.82
2023-04-20T07:41:03.314Z,23.82
2023-04-20T07:42:02.656Z,23.83
2023-04-20T07:43:02.819Z,23.83
2023-04-20T07:44:05.278Z,23.84
2023-04-20T07:45:03.292Z,23.83
2023-04-20T07:46:02.670Z,23.84
2023-04-20T07:47:03.029Z,23.84
2023-04-20T07:48:02.837Z,23.85
2023-04-20T07:49:02.658Z,23.86
2023-04-20T07:50:02.660Z,23.86
2023-04-20T07:51:02.624Z,23.87
2023-04-20T07:52:15.207Z,23.87
2023-04-20T07:53:04.801Z,23.87
2023-04-20T07:54:02.826Z,23.88
2023-04-20T07:55:03.787Z,23.89
2023-04-20T07:56:02.602Z,23.89
2023-04-20T07:57:02.578Z,23.90
2023-04-20T07:58:02.567Z,23.90
2023-04-20T07:59:02.795Z,23.91
2023-04-20T08:00:02.554Z,23.92
2023-04-20T08:01:02.804Z,23.92
2023-04-20T08:02:02.636Z,23.92
2023-04-20T08:03:02.638Z,23.93
2023-04-20T08:04:03.003Z,23.93
2023-04-20T08:05:03.064Z,23.93
2023-04-20T08:06:02.872Z,23.93
2023-04-20T08:07:02.497Z,23.93
2023-04-20T08:08:02.813Z,23.93
2023-04-20T08:09:02.500Z,23.93
2023-04-20T08:10:02.520Z,23.93
2023-04-20T08:11:02.931Z,23.94
2023-04-20T08:12:02.543Z,23.93
2023-04-20T08:13:02.570Z,23.94
2023-04-20T08:14:02.538Z,23.94
2023-04-20T08:15:02.541Z,23.94
2023-04-20T08:16:02.836Z,23.94
2023-04-20T08:17:02.569Z,23.95
2023-04-20T08:18:02.619Z,23.95
2023-04-20T08:19:02.835Z,23.94
2023-04-20T08:20:02.615Z,23.95
2023-04-20T08:21:02.864Z,23.95
2023-04-20T08:22:03.480Z,23.96
2023-04-20T08:23:02.640Z,23.95
2023-04-20T08:24:02.798Z,23.97
2023-04-20T08:25:03.291Z,23.97
2023-04-20T08:26:03.304Z,23.98
2023-04-20T08:27:02.693Z,23.98
2023-04-20T08:28:02.937Z,23.99
2023-04-20T08:29:02.808Z,23.99
2023-04-20T08:30:05.317Z,23.99
2023-04-20T08:31:02.772Z,24.00
2023-04-20T08:32:02.877Z,23.99
2023-04-20T08:33:02.757Z,24.00
2023-04-20T08:34:02.853Z,24.01
2023-04-20T08:35:02.681Z,24.01
2023-04-20T08:36:02.671Z,24.01
2023-04-20T08:37:02.660Z,24.01
2023-04-20T08:38:02.705Z,24.02
2023-04-20T08:39:03.361Z,24.05
2023-04-20T08:40:02.674Z,24.16
2023-04-20T08:41:02.658Z,24.20
2023-04-20T08:42:02.648Z,24.20
2023-04-20T08:43:03.540Z,24.20
2023-04-20T08:44:02.818Z,24.18
2023-04-20T08:45:02.622Z,24.18
2023-04-20T08:46:02.697Z,24.18
2023-04-20T08:47:02.690Z,24.17
2023-04-20T08:48:03.376Z,24.17
2023-04-20T08:49:02.623Z,24.17
2023-04-20T08:50:02.573Z,24.17
2023-04-20T08:51:05.313Z,24.15
2023-04-20T08:52:02.578Z,24.14
2023-04-20T08:53:02.813Z,24.14
2023-04-20T08:54:02.818Z,24.13
2023-04-20T08:55:02.555Z,24.12
2023-04-20T08:56:02.554Z,24.12
2023-04-20T08:57:02.558Z,24.10
2023-04-20T08:58:02.526Z,24.09
2023-04-20T08:59:02.855Z,24.09
2023-04-20T09:00:02.830Z,24.09
2023-04-20T09:01:02.501Z,24.10
2023-04-20T09:02:02.597Z,24.09
2023-04-20T09:03:02.626Z,24.09
2023-04-20T09:04:02.613Z,24.10
2023-04-20T09:05:03.038Z,24.09
2023-04-20T09:06:02.478Z,24.09
2023-04-20T09:07:02.479Z,24.09
2023-04-20T09:08:02.459Z,24.08
2023-04-20T09:09:02.465Z,24.08
2023-04-20T09:10:02.832Z,24.08
2023-04-20T09:11:02.462Z,24.07
2023-04-20T09:12:02.439Z,24.08
2023-04-20T09:13:02.436Z,24.07
2023-04-20T09:14:02.837Z,24.07
2023-04-20T09:15:03.085Z,24.07
2023-04-20T09:16:02.440Z,24.06
2023-04-20T09:17:02.412Z,24.06
2023-04-20T09:18:02.415Z,24.05
2023-04-20T09:19:02.406Z,24.05
2023-04-20T09:20:03.514Z,24.05
2023-04-20T09:21:02.373Z,24.04
2023-04-20T09:22:02.826Z,24.04
2023-04-20T09:23:02.364Z,24.04
2023-04-20T09:24:02.861Z,24.04
2023-04-20T09:25:02.372Z,24.03
2023-04-20T09:26:02.346Z,24.02
2023-04-20T09:27:02.339Z,24.02
2023-04-20T09:28:02.351Z,24.01
2023-04-20T09:29:02.385Z,24.02
2023-04-20T09:30:02.349Z,24.07
2023-04-20T09:31:02.362Z,24.12
2023-04-20T09:32:02.360Z,24.15
2023-04-20T09:33:02.332Z,24.18
2023-04-20T09:34:02.364Z,24.21
2023-04-20T09:35:02.288Z,24.21
2023-04-20T09:36:02.304Z,24.21
2023-04-20T09:37:02.276Z,24.20
2023-04-20T09:38:02.359Z,24.19
2023-04-20T09:39:02.280Z,24.19
2023-04-20T09:40:02.406Z,24.18
2023-04-20T09:41:02.256Z,24.17
2023-04-20T09:42:02.245Z,24.16
2023-04-20T09:43:02.346Z,24.16
2023-04-20T09:44:02.356Z,24.16
2023-04-20T09:45:02.269Z,24.16
2023-04-20T09:46:02.328Z,24.16
2023-04-20T09:47:02.334Z,24.15
2023-04-20T09:48:02.375Z,24.15
2023-04-20T09:49:02.289Z,24.15
2023-04-20T09:50:14.016Z,24.15
2023-04-20T09:51:02.291Z,24.14
2023-04-20T09:52:02.307Z,24.14
2023-04-20T09:53:02.948Z,24.14
2023-04-20T09:54:02.366Z,24.14
2023-04-20T09:55:02.302Z,24.14
2023-04-20T09:56:02.297Z,24.14
2023-04-20T09:57:02.275Z,24.14
2023-04-20T09:58:02.283Z,24.13
2023-04-20T09:59:02.274Z,24.14
2023-04-20T10:00:02.255Z,24.15
2023-04-20T10:01:02.267Z,24.14
2023-04-20T10:02:02.345Z,24.14
2023-04-20T10:03:02.439Z,24.13
2023-04-20T10:04:02.413Z,24.13
2023-04-20T10:05:02.353Z,24.13
2023-04-20T10:06:02.212Z,24.13
2023-04-20T10:07:02.345Z,24.13
2023-04-20T10:08:02.895Z,24.14
2023-04-20T10:09:02.187Z,24.14
2023-04-20T10:10:02.359Z,24.14
2023-04-20T10:11:02.168Z,24.14
2023-04-20T10:12:02.153Z,24.14
2023-04-20T10:13:02.153Z,24.13
2023-04-20T10:14:02.150Z,24.14
2023-04-20T10:15:02.356Z,24.14
2023-04-20T10:16:02.135Z,24.13
2023-04-20T10:17:02.337Z,24.13
2023-04-20T10:18:02.212Z,24.14
2023-04-20T10:19:02.203Z,24.13
2023-04-20T10:20:02.355Z,24.13
2023-04-20T10:21:02.109Z,24.13
2023-04-20T10:22:02.107Z,24.13
2023-04-20T10:23:02.080Z,24.13
2023-04-20T10:24:02.079Z,24.12
2023-04-20T10:25:02.747Z,24.12
2023-04-20T10:26:02.088Z,24.12
2023-04-20T10:27:02.069Z,24.12
2023-04-20T10:28:02.059Z,24.11
2023-04-20T10:29:02.051Z,24.11
2023-04-20T10:30:02.355Z,24.11
2023-04-20T10:31:02.422Z,24.10
2023-04-20T10:32:02.029Z,24.10
2023-04-20T10:33:02.095Z,24.11
2023-04-20T10:34:02.304Z,24.12
2023-04-20T10:35:02.369Z,24.11
2023-04-20T10:36:02.352Z,24.11
2023-04-20T10:37:02.249Z,24.11
2023-04-20T10:38:02.231Z,24.12
2023-04-20T10:39:02.178Z,24.13
2023-04-20T10:40:02.411Z,24.13
2023-04-20T10:41:01.982Z,24.13
2023-04-20T10:42:02.494Z,24.14
2023-04-20T10:43:02.405Z,24.13
2023-04-20T10:44:02.484Z,24.13
2023-04-20T10:45:02.735Z,24.13
2023-04-20T10:46:02.431Z,24.13
2023-04-20T10:47:01.947Z,24.13
2023-04-20T10:48:01.958Z,24.12
2023-04-20T10:49:01.980Z,24.13
2023-04-20T10:50:02.374Z,24.11
2023-04-20T10:51:01.941Z,24.11
2023-04-20T10:52:01.915Z,24.11
2023-04-20T10:53:01.900Z,24.12
2023-04-20T10:54:01.892Z,24.12
2023-04-20T10:55:02.370Z,24.13
2023-04-20T10:56:02.017Z,24.12
2023-04-20T10:57:01.948Z,24.12
2023-04-20T10:58:01.902Z,24.12
2023-04-20T10:59:02.438Z,24.12
2023-04-20T11:00:02.384Z,24.12
2023-04-20T11:01:01.943Z,24.12
2023-04-20T11:02:02.039Z,24.13
2023-04-20T11:03:02.107Z,24.13
2023-04-20T11:04:01.960Z,24.13
2023-04-20T11:05:02.410Z,24.13
2023-04-20T11:06:01.960Z,24.14
2023-04-20T11:07:01.960Z,24.13
2023-04-20T11:08:01.953Z,24.13
2023-04-20T11:09:01.956Z,24.14
2023-04-20T11:10:02.402Z,24.14
2023-04-20T11:11:01.994Z,24.14
2023-04-20T11:12:01.998Z,24.14
2023-04-20T11:13:01.946Z,24.14
2023-04-20T11:14:01.961Z,24.14
2023-04-20T11:15:02.385Z,24.13
2023-04-20T11:16:01.961Z,24.13
2023-04-20T11:17:02.214Z,24.14
2023-04-20T11:18:01.959Z,24.13
2023-04-20T11:19:01.937Z,24.14
2023-04-20T11:20:02.381Z,24.14
2023-04-20T11:21:01.944Z,24.14
2023-04-20T11:22:02.379Z,24.14
2023-04-20T11:23:02.332Z,24.14
2023-04-20T11:24:01.945Z,24.15
2023-04-20T11:25:01.948Z,24.14
2023-04-20T11:26:01.944Z,24.15
2023-04-20T11:27:02.785Z,24.16
2023-04-20T11:28:02.093Z,24.16
2023-04-20T11:29:01.949Z,24.16
2023-04-20T11:30:02.378Z,24.15
2023-04-20T11:31:02.002Z,24.15
2023-04-20T11:32:02.664Z,24.14
2023-04-20T11:33:02.091Z,24.16
2023-04-20T11:34:01.931Z,24.15
2023-04-20T11:35:06.656Z,24.16
2023-04-20T11:36:01.920Z,24.16
2023-04-20T11:37:02.384Z,24.15
2023-04-20T11:38:01.947Z,24.16
2023-04-20T11:39:01.916Z,24.17
2023-04-20T11:40:01.922Z,24.17
2023-04-20T11:41:01.894Z,24.17
2023-04-20T11:42:01.907Z,24.17
2023-04-20T11:43:01.882Z,24.17
2023-04-20T11:44:01.869Z,24.17
2023-04-20T11:45:01.863Z,24.17
2023-04-20T11:46:01.946Z,24.17
2023-04-20T11:47:01.962Z,24.18
2023-04-20T11:48:01.896Z,24.18
2023-04-20T11:49:01.877Z,24.17
2023-04-20T11:50:01.835Z,24.18
2023-04-20T11:51:01.840Z,24.18
2023-04-20T11:52:01.858Z,24.18
2023-04-20T11:53:01.893Z,24.19
2023-04-20T11:54:01.796Z,24.19
2023-04-20T11:55:01.826Z,24.19
2023-04-20T11:56:01.893Z,24.18
2023-04-20T11:57:01.780Z,24.18
2023-04-20T11:58:02.402Z,24.18
2023-04-20T11:59:01.767Z,24.18
2023-04-20T12:00:01.776Z,24.19
2023-04-20T12:01:02.400Z,24.19
2023-04-20T12:02:01.862Z,24.18
2023-04-20T12:03:01.931Z,24.18
2023-04-20T12:04:02.067Z,24.18
2023-04-20T12:05:01.948Z,24.19
2023-04-20T12:06:01.733Z,24.19
2023-04-20T12:07:01.728Z,24.18
2023-04-20T12:08:01.712Z,24.18
2023-04-20T12:09:01.701Z,24.19
2023-04-20T12:10:01.903Z,24.20
2023-04-20T12:11:01.721Z,24.20
2023-04-20T12:12:01.686Z,24.19
2023-04-20T12:13:01.683Z,24.21
2023-04-20T12:14:01.680Z,24.21
2023-04-20T12:15:01.906Z,24.21
2023-04-20T12:16:02.000Z,24.21
2023-04-20T12:17:01.660Z,24.21
2023-04-20T12:18:01.741Z,24.20
2023-04-20T12:19:01.651Z,24.20
2023-04-20T12:20:01.646Z,24.21
2023-04-20T12:21:01.640Z,24.20
2023-04-20T12:22:01.618Z,24.21
2023-04-20T12:23:01.630Z,24.21
2023-04-20T12:24:01.612Z,24.21
2023-04-20T12:25:01.608Z,24.21
2023-04-20T12:26:02.438Z,24.22
2023-04-20T12:27:01.653Z,24.22
2023-04-20T12:28:01.593Z,24.23
2023-04-20T12:29:02.408Z,24.23
2023-04-20T12:30:01.923Z,24.23
2023-04-20T12:31:01.618Z,24.24
2023-04-20T12:32:01.612Z,24.25
2023-04-20T12:33:01.822Z,24.25
2023-04-20T12:34:01.567Z,24.26
2023-04-20T12:35:01.576Z,24.27
2023-04-20T12:36:01.537Z,24.27
2023-04-20T12:37:01.577Z,24.27
2023-04-20T12:38:01.534Z,24.28
2023-04-20T12:39:01.528Z,24.28
2023-04-20T12:40:01.539Z,24.28
2023-04-20T12:41:01.506Z,24.29
2023-04-20T12:42:01.505Z,24.28
2023-04-20T12:43:01.574Z,24.28
2023-04-20T12:44:04.378Z,24.28
2023-04-20T12:45:01.512Z,24.28
2023-04-20T12:46:01.740Z,24.27
2023-04-20T12:47:01.559Z,24.27
2023-04-20T12:48:01.516Z,24.28
2023-04-20T12:49:01.465Z,24.28
2023-04-20T12:50:01.487Z,24.29
2023-04-20T12:51:02.431Z,24.29
2023-04-20T12:52:01.446Z,24.29
2023-04-20T12:53:01.449Z,24.30
2023-04-20T12:54:01.429Z,24.31